createdAt,value
2022-12-08T00:00:00.098Z,26.20
2022-12-08T00:10:47.964Z,26.30
2022-12-08T00:15:45.246Z,26.20
2022-12-08T00:20:58.001Z,26.20
2022-12-08T00:26:05.088Z,26.20
2022-12-08T00:31:09.393Z,26.20
2022-12-08T00:36:14.224Z,26.30
2022-12-08T00:41:40.582Z,26.30
2022-12-08T00:46:42.877Z,26.50
2022-12-08T00:51:45.076Z,26.50
2022-12-08T01:01:49.674Z,26.50
2022-12-08T01:06:51.873Z,26.40
2022-12-08T01:11:53.942Z,26.50
2022-12-08T01:16:56.131Z,26.50
2022-12-08T01:21:58.223Z,26.60
2022-12-08T01:27:00.283Z,26.50
2022-12-08T01:37:04.998Z,26.50
2022-12-08T01:42:21.926Z,26.60
2022-12-08T01:47:29.597Z,26.60
2022-12-08T01:52:48.487Z,26.60
2022-12-08T01:58:13.404Z,26.60
2022-12-08T02:03:31.525Z,26.50
2022-12-08T02:08:35.874Z,26.50
2022-12-08T02:13:38.730Z,26.60
2022-12-08T02:24:42.408Z,26.70
2022-12-08T02:30:08.692Z,26.70
2022-12-08T02:35:23.896Z,26.70
2022-12-08T02:40:34.473Z,26.80
2022-12-08T02:45:44.130Z,26.80
2022-12-08T02:50:46.275Z,26.80
2022-12-08T02:56:04.102Z,26.60
2022-12-08T03:01:25.787Z,26.50
2022-12-08T03:11:46.467Z,26.80
2022-12-08T03:16:52.617Z,26.90
2022-12-08T03:22:06.996Z,26.90
2022-12-08T03:27:13.491Z,26.90
2022-12-08T03:32:34.600Z,26.90
2022-12-08T03:37:37.953Z,27.00
2022-12-08T03:42:40.061Z,26.90
2022-12-08T03:47:42.050Z,26.90
2022-12-08T03:52:44.139Z,26.90
2022-12-08T03:57:46.134Z,26.90
2022-12-08T04:02:48.191Z,26.90
2022-12-08T04:12:53.106Z,26.80
2022-12-08T04:17:55.228Z,26.80
2022-12-08T04:22:57.248Z,26.80
2022-12-08T04:27:59.418Z,26.70
2022-12-08T04:43:06.906Z,26.50
2022-12-08T04:48:09.865Z,26.50
2022-12-08T04:53:13.395Z,26.60
2022-12-08T04:58:17.834Z,26.50
2022-12-08T05:08:30.657Z,26.60
2022-12-08T05:13:33.218Z,26.50
2022-12-08T05:18:36.072Z,26.50
2022-12-08T05:23:38.288Z,26.50
2022-12-08T05:28:42.365Z,26.70
2022-12-08T05:33:46.087Z,26.60
2022-12-08T05:43:53.657Z,26.80
2022-12-08T05:48:55.785Z,26.80
2022-12-08T05:59:01.909Z,26.80
2022-12-08T06:04:05.068Z,26.70
2022-12-08T06:09:07.269Z,26.80
2022-12-08T06:14:13.032Z,26.80
2022-12-08T06:19:15.830Z,26.90
2022-12-08T06:24:18.249Z,26.80
2022-12-08T06:39:25.356Z,26.70
2022-12-08T06:44:27.412Z,26.80
2022-12-08T06:49:29.457Z,26.70
2022-12-08T06:54:31.576Z,26.70
2022-12-08T06:59:33.712Z,26.70
2022-12-08T07:04:35.771Z,26.80
2022-12-08T07:09:37.972Z,27.40
2022-12-08T07:14:40.117Z,26.90
2022-12-08T07:19:42.174Z,26.80
2022-12-08T07:24:44.264Z,26.80
2022-12-08T07:29:46.297Z,27.00
2022-12-08T07:34:48.397Z,27.10
2022-12-08T07:39:50.462Z,27.50
2022-12-08T07:44:52.607Z,27.00
2022-12-08T07:54:57.136Z,27.20
2022-12-08T07:59:59.138Z,27.20
2022-12-08T08:05:01.365Z,27.10
2022-12-08T08:10:04.440Z,27.20
2022-12-08T08:15:08.447Z,27.20
2022-12-08T08:20:11.348Z,27.90
2022-12-08T08:25:14.954Z,27.10
2022-12-08T08:30:20.762Z,27.10
2022-12-08T08:35:23.366Z,27.10
2022-12-08T08:40:25.479Z,27.20
2022-12-08T08:45:28.073Z,27.10
2022-12-08T08:50:34.408Z,27.80
2022-12-08T08:55:40.156Z,27.10
2022-12-08T09:00:42.453Z,27.30
2022-12-08T09:05:45.063Z,27.20
2022-12-08T09:10:47.055Z,27.20
2022-12-08T09:15:49.385Z,27.70
2022-12-08T09:20:51.700Z,27.10
2022-12-08T09:25:53.765Z,27.10
2022-12-08T09:30:56.023Z,27.10
2022-12-08T09:36:03.444Z,27.10
2022-12-08T09:41:19.804Z,27.00
2022-12-08T09:46:22.255Z,27.40
2022-12-08T09:51:26.727Z,26.70
2022-12-08T09:56:33.718Z,26.60
2022-12-08T10:01:41.403Z,26.70
2022-12-08T10:07:17.918Z,27.00
2022-12-08T10:12:34.108Z,26.40
2022-12-08T10:17:44.503Z,26.40
2022-12-08T10:22:50.567Z,26.30
2022-12-08T10:27:54.740Z,26.10
2022-12-08T10:32:57.002Z,26.10
2022-12-08T10:38:02.332Z,26.50
2022-12-08T10:43:06.869Z,26.10
2022-12-08T10:48:19.021Z,26.40
2022-12-08T10:53:33.651Z,25.70
2022-12-08T11:03:57.217Z,25.70
2022-12-08T11:09:22.513Z,25.30
2022-12-08T11:14:44.052Z,25.50
2022-12-08T11:20:18.404Z,25.10
2022-12-08T11:25:27.545Z,25.20
2022-12-08T11:30:36.105Z,25.10
2022-12-08T11:35:42.610Z,25.00
2022-12-08T11:40:45.230Z,24.90
2022-12-08T11:45:50.935Z,24.80
2022-12-08T11:51:13.392Z,24.50
2022-12-08T11:56:26.349Z,24.40
2022-12-08T12:01:28.572Z,24.60
2022-12-08T12:07:05.507Z,23.50
2022-12-08T12:12:22.627Z,23.60
2022-12-08T12:18:05.384Z,23.50
2022-12-08T12:23:22.637Z,23.50
2022-12-08T12:28:28.202Z,23.00
2022-12-08T12:33:31.592Z,22.90
2022-12-08T12:38:59.159Z,23.00
2022-12-08T12:44:13.197Z,22.40
2022-12-08T12:49:40.245Z,22.10
2022-12-08T12:54:43.447Z,22.70
2022-12-08T12:59:55.188Z,22.00
2022-12-08T13:04:59.867Z,22.10
2022-12-08T13:10:11.335Z,22.20
2022-12-08T13:15:20.111Z,22.20
2022-12-08T13:20:24.894Z,22.70
2022-12-08T13:25:45.233Z,22.50
2022-12-08T13:30:51.355Z,22.30
2022-12-08T13:36:25.788Z,22.40
2022-12-08T13:41:47.924Z,22.20
2022-12-08T13:47:24.600Z,22.30
2022-12-08T13:57:42.755Z,22.90
2022-12-08T14:02:48.906Z,23.00
2022-12-08T14:07:55.466Z,23.00
2022-12-08T14:13:05.154Z,23.10
2022-12-08T14:18:24.549Z,23.10
2022-12-08T14:23:26.697Z,23.00
2022-12-08T14:28:28.783Z,23.10
2022-12-08T14:33:31.516Z,22.80
2022-12-08T14:38:33.560Z,22.90
2022-12-08T14:43:36.206Z,22.90
2022-12-08T14:48:38.259Z,22.90
2022-12-08T14:53:46.232Z,22.90
2022-12-08T14:58:51.315Z,22.90
2022-12-08T15:03:55.488Z,22.70
2022-12-08T15:08:59.549Z,22.80
2022-12-08T15:14:02.703Z,23.10
2022-12-08T15:19:31.134Z,23.20
2022-12-08T15:29:37.594Z,23.30
2022-12-08T15:34:39.804Z,23.30
2022-12-08T15:39:41.936Z,23.50
2022-12-08T15:44:44.417Z,23.40
2022-12-08T15:49:49.610Z,23.40
2022-12-08T15:54:51.764Z,23.40
2022-12-08T15:59:53.896Z,23.70
2022-12-08T16:10:24.030Z,23.70
2022-12-08T16:26:35.532Z,23.60
2022-12-08T16:31:37.056Z,23.80
2022-12-08T16:36:39.231Z,23.80
2022-12-08T16:47:09.097Z,23.80
2022-12-08T16:52:11.305Z,24.60
2022-12-08T16:57:13.397Z,24.20
2022-12-08T17:02:16.617Z,24.20
2022-12-08T17:07:18.943Z,24.00
2022-12-08T17:12:21.086Z,24.40
2022-12-08T17:17:23.150Z,24.40
2022-12-08T17:22:25.408Z,24.30
2022-12-08T17:27:27.941Z,24.40
2022-12-08T17:32:30.086Z,24.60
2022-12-08T17:37:32.206Z,24.60
2022-12-08T17:42:34.319Z,24.60
2022-12-08T17:47:37.083Z,24.60
2022-12-08T17:52:39.232Z,24.60
2022-12-08T17:57:41.382Z,24.60
2022-12-08T18:02:44.512Z,24.60
2022-12-08T18:07:46.992Z,24.60
2022-12-08T18:12:49.083Z,24.60
2022-12-08T18:17:51.752Z,24.60
2022-12-08T18:22:53.909Z,24.70
2022-12-08T18:27:55.949Z,24.60
2022-12-08T18:32:58.012Z,24.60
2022-12-08T18:38:00.123Z,24.80
2022-12-08T18:43:02.140Z,24.80
2022-12-08T18:48:04.778Z,24.90
2022-12-08T18:53:06.746Z,24.60
2022-12-08T19:03:13.004Z,24.70
2022-12-08T19:08:15.245Z,25.00
2022-12-08T19:13:17.323Z,25.00
2022-12-08T19:18:19.531Z,25.80
2022-12-08T19:23:21.589Z,25.30
2022-12-08T19:33:26.058Z,25.60
2022-12-08T19:38:28.121Z,26.10
2022-12-08T19:43:48.651Z,25.40
2022-12-08T19:48:50.743Z,26.10
2022-12-08T19:53:52.822Z,25.80
2022-12-08T19:58:54.935Z,26.30
2022-12-08T20:03:57.049Z,25.60
2022-12-08T20:09:00.351Z,25.70
2022-12-08T20:14:02.447Z,26.00
2022-12-08T20:19:04.609Z,26.00
2022-12-08T20:24:07.106Z,26.00
2022-12-08T20:29:09.111Z,26.00
2022-12-08T20:34:15.726Z,25.90
2022-12-08T20:39:18.727Z,26.30
2022-12-08T20:44:20.950Z,26.20
2022-12-08T20:49:23.167Z,26.20
2022-12-08T20:54:25.202Z,27.00
2022-12-08T20:59:27.780Z,25.90
2022-12-08T21:04:29.871Z,26.40
2022-12-08T21:09:32.148Z,26.20
2022-12-08T21:14:34.333Z,26.40
2022-12-08T21:19:36.623Z,26.50
2022-12-08T21:24:38.721Z,26.50
2022-12-08T21:29:40.824Z,26.60
2022-12-08T21:34:44.025Z,27.20
2022-12-08T21:39:46.293Z,26.70
2022-12-08T21:44:48.580Z,26.70
2022-12-08T21:49:50.665Z,26.70
2022-12-08T21:54:53.093Z,26.60
2022-12-08T22:04:58.350Z,26.70
2022-12-08T22:10:00.770Z,27.30
2022-12-08T22:15:07.625Z,26.60
2022-12-08T22:20:15.097Z,26.60
2022-12-08T22:25:17.348Z,26.70
2022-12-08T22:30:19.459Z,26.80
2022-12-08T22:40:24.165Z,26.80
2022-12-08T22:45:26.377Z,26.80
2022-12-08T22:50:28.826Z,26.80
2022-12-08T23:00:33.434Z,26.60
2022-12-08T23:05:38.097Z,26.90
2022-12-08T23:10:40.993Z,27.00
2022-12-08T23:20:45.929Z,27.00
2022-12-08T23:25:48.447Z,26.90
2022-12-08T23:30:50.673Z,26.90
2022-12-08T23:35:58.837Z,27.00
2022-12-08T23:41:04.374Z,26.80
2022-12-08T23:46:06.634Z,26.80
2022-12-08T23:51:09.251Z,26.90
2022-12-08T23:56:12.729Z,26.70
